createdAt,value
2018-07-22T00:00:39.973Z,1008.75
2018-07-22T00:01:40.319Z,1008.75
2018-07-22T00:02:40.039Z,1008.72
2018-07-22T00:03:40.284Z,1008.79
2018-07-22T00:04:40.160Z,1008.77
2018-07-22T00:05:40.146Z,1008.77
2018-07-22T00:06:40.226Z,1008.77
2018-07-22T00:07:40.520Z,1008.73
2018-07-22T00:08:40.263Z,1008.78
2018-07-22T00:09:40.292Z,1008.78
2018-07-22T00:11:40.351Z,1008.80
2018-07-22T00:12:40.409Z,1008.78
2018-07-22T00:13:40.736Z,1008.80
2018-07-22T00:14:40.463Z,1008.80
2018-07-22T00:15:40.491Z,1008.81
2018-07-22T00:16:40.524Z,1008.85
2018-07-22T00:17:40.565Z,1008.86
2018-07-22T00:18:40.607Z,1008.86
2018-07-22T00:19:40.883Z,1008.82
2018-07-22T00:20:40.662Z,1008.87
2018-07-22T00:21:40.706Z,1008.89
2018-07-22T00:22:40.735Z,1008.93
2018-07-22T00:23:40.773Z,1008.91
2018-07-22T00:24:40.802Z,1008.89
2018-07-22T00:25:41.089Z,1008.95
2018-07-22T00:26:40.889Z,1008.91
2018-07-22T00:27:40.907Z,1008.93
2018-07-22T00:28:40.949Z,1008.92
2018-07-22T00:29:40.975Z,1008.92
2018-07-22T00:30:41.020Z,1008.94
2018-07-22T00:31:41.351Z,1008.97
2018-07-22T00:32:41.078Z,1008.99
2018-07-22T00:33:41.127Z,1008.99
2018-07-22T00:34:41.157Z,1008.99
2018-07-22T00:35:41.190Z,1008.98
2018-07-22T00:36:41.215Z,1008.98
2018-07-22T00:37:41.510Z,1008.97
2018-07-22T00:38:41.291Z,1008.99
2018-07-22T00:39:41.323Z,1008.99
2018-07-22T00:40:41.360Z,1008.99
2018-07-22T00:41:41.418Z,1009.00
2018-07-22T00:42:41.428Z,1008.99
2018-07-22T00:43:41.709Z,1009.03
2018-07-22T00:44:41.489Z,1008.99
2018-07-22T00:45:41.528Z,1009.01
2018-07-22T00:46:41.562Z,1009.00
2018-07-22T00:47:41.593Z,1009.00
2018-07-22T00:48:41.626Z,1008.99
2018-07-22T00:49:41.965Z,1008.97
2018-07-22T00:50:41.698Z,1008.99
2018-07-22T00:51:41.736Z,1008.99
2018-07-22T00:52:41.774Z,1008.99
2018-07-22T00:53:41.805Z,1009.02
2018-07-22T00:54:41.838Z,1009.01
2018-07-22T00:55:42.343Z,1009.00
2018-07-22T00:56:41.917Z,1009.04
2018-07-22T00:57:41.947Z,1009.02
2018-07-22T00:58:41.970Z,1009.03
2018-07-22T00:59:42.014Z,1009.00
2018-07-22T01:00:42.041Z,1008.99
2018-07-22T01:01:42.076Z,1009.00
2018-07-22T01:02:42.362Z,1008.98
2018-07-22T01:03:42.149Z,1009.00
2018-07-22T01:04:42.182Z,1008.99
2018-07-22T01:05:42.214Z,1009.01
2018-07-22T01:06:42.256Z,1008.97
2018-07-22T01:07:42.293Z,1008.99
2018-07-22T01:08:42.311Z,1008.97
2018-07-22T01:09:42.607Z,1008.99
2018-07-22T01:10:42.379Z,1008.98
2018-07-22T01:11:42.437Z,1008.98
2018-07-22T01:12:42.461Z,1008.97
2018-07-22T01:13:42.501Z,1008.96
2018-07-22T01:14:42.524Z,1008.96
2018-07-22T01:15:42.551Z,1008.98
2018-07-22T01:16:42.940Z,1008.99
2018-07-22T01:17:42.624Z,1008.98
2018-07-22T01:18:42.655Z,1009.01
2018-07-22T01:19:42.694Z,1009.00
2018-07-22T01:20:42.724Z,1009.05
2018-07-22T01:21:42.754Z,1009.05
2018-07-22T01:22:42.798Z,1009.08
2018-07-22T01:23:43.084Z,1009.02
2018-07-22T01:24:42.863Z,1009.07
2018-07-22T01:25:42.891Z,1009.07
2018-07-22T01:26:43.232Z,1009.13
2018-07-22T01:27:43.141Z,1009.10
2018-07-22T01:28:43.000Z,1009.08
2018-07-22T01:29:43.027Z,1009.08
2018-07-22T01:30:43.318Z,1009.07
2018-07-22T01:31:43.099Z,1009.10
2018-07-22T01:32:43.128Z,1009.10
2018-07-22T01:33:43.165Z,1009.11
2018-07-22T01:34:43.198Z,1009.08
2018-07-22T01:35:43.239Z,1009.08
2018-07-22T01:36:43.274Z,1009.11
2018-07-22T01:37:43.603Z,1009.07
2018-07-22T01:38:43.350Z,1009.08
2018-07-22T01:39:43.371Z,1009.09
2018-07-22T01:40:43.396Z,1009.10
2018-07-22T01:41:43.444Z,1009.05
2018-07-22T01:42:43.478Z,1009.07
2018-07-22T01:43:43.509Z,1009.05
2018-07-22T01:44:43.783Z,1009.06
2018-07-22T01:45:43.575Z,1009.06
2018-07-22T01:46:43.605Z,1009.07
2018-07-22T01:47:43.638Z,1009.07
2018-07-22T01:48:43.683Z,1009.03
2018-07-22T01:49:43.704Z,1009.08
2018-07-22T01:50:43.738Z,1009.10
2018-07-22T01:51:44.073Z,1009.10
2018-07-22T01:52:43.805Z,1009.09
2018-07-22T01:53:44.089Z,1009.10
2018-07-22T01:54:43.877Z,1009.08
2018-07-22T01:55:43.907Z,1009.08
2018-07-22T01:56:43.961Z,1009.09
2018-07-22T01:57:44.153Z,1009.08
2018-07-22T01:58:44.314Z,1009.05
2018-07-22T01:59:44.042Z,1009.10
2018-07-22T02:00:44.131Z,1009.05
2018-07-22T02:01:44.178Z,1009.09
2018-07-22T02:02:44.152Z,1009.11
2018-07-22T02:03:44.178Z,1009.12
2018-07-22T02:04:44.220Z,1009.10
2018-07-22T02:05:44.499Z,1009.10
2018-07-22T02:06:44.280Z,1009.12
2018-07-22T02:07:44.311Z,1009.15
2018-07-22T02:08:44.345Z,1009.12
2018-07-22T02:09:44.383Z,1009.17
2018-07-22T02:10:44.425Z,1009.15
2018-07-22T02:11:44.449Z,1009.19
2018-07-22T02:12:44.745Z,1009.19
2018-07-22T02:13:44.520Z,1009.20
2018-07-22T02:14:44.553Z,1009.17
2018-07-22T02:15:44.594Z,1009.22
2018-07-22T02:16:44.620Z,1009.17
2018-07-22T02:17:44.655Z,1009.21
2018-07-22T02:18:44.690Z,1009.18
2018-07-22T02:19:45.025Z,1009.24
2018-07-22T02:20:44.760Z,1009.23
2018-07-22T02:21:44.802Z,1009.23
2018-07-22T02:22:44.820Z,1009.24
2018-07-22T02:23:44.852Z,1009.26
2018-07-22T02:24:44.884Z,1009.24
2018-07-22T02:25:45.170Z,1009.25
2018-07-22T02:26:44.956Z,1009.29
2018-07-22T02:27:44.989Z,1009.30
2018-07-22T02:28:45.121Z,1009.30
2018-07-22T02:29:45.049Z,1009.30
2018-07-22T02:30:45.085Z,1009.34
2018-07-22T02:31:45.375Z,1009.33
2018-07-22T02:32:45.152Z,1009.28
2018-07-22T02:33:45.193Z,1009.32
2018-07-22T02:34:45.221Z,1009.30
2018-07-22T02:35:45.256Z,1009.32
2018-07-22T02:36:45.290Z,1009.34
2018-07-22T02:37:45.572Z,1009.38
2018-07-22T02:38:45.350Z,1009.36
2018-07-22T02:39:45.390Z,1009.39
2018-07-22T02:40:45.420Z,1009.37
2018-07-22T02:41:45.469Z,1009.38
2018-07-22T02:42:45.496Z,1009.41
2018-07-22T02:43:45.827Z,1009.44
2018-07-22T02:44:45.555Z,1009.45
2018-07-22T02:45:45.591Z,1009.43
2018-07-22T02:46:45.642Z,1009.43
2018-07-22T02:47:45.661Z,1009.43
2018-07-22T02:48:45.786Z,1009.39
2018-07-22T02:49:46.022Z,1009.40
2018-07-22T02:50:45.770Z,1009.39
2018-07-22T02:51:45.785Z,1009.45
2018-07-22T02:52:45.834Z,1009.40
2018-07-22T02:53:45.856Z,1009.44
2018-07-22T02:54:45.886Z,1009.45
2018-07-22T02:55:46.174Z,1009.42
2018-07-22T02:56:46.144Z,1009.43
2018-07-22T02:57:45.987Z,1009.44
2018-07-22T02:58:46.156Z,1009.46
2018-07-22T02:59:46.056Z,1009.48
2018-07-22T03:00:46.096Z,1009.48
2018-07-22T03:01:46.422Z,1009.49
2018-07-22T03:02:46.163Z,1009.47
2018-07-22T03:03:46.194Z,1009.49
2018-07-22T03:04:46.224Z,1009.49
2018-07-22T03:05:46.253Z,1009.46
2018-07-22T03:06:46.289Z,1009.48
2018-07-22T03:07:46.572Z,1009.49
2018-07-22T03:08:46.363Z,1009.52
2018-07-22T03:09:46.418Z,1009.49
2018-07-22T03:10:46.425Z,1009.53
2018-07-22T03:11:46.457Z,1009.51
2018-07-22T03:12:46.492Z,1009.53
2018-07-22T03:13:46.874Z,1009.54
2018-07-22T03:14:46.555Z,1009.56
2018-07-22T03:15:46.596Z,1009.53
2018-07-22T03:16:46.644Z,1009.50
2018-07-22T03:17:46.655Z,1009.55
2018-07-22T03:18:46.691Z,1009.59
2018-07-22T03:19:46.984Z,1009.60
2018-07-22T03:20:46.757Z,1009.60
2018-07-22T03:21:46.795Z,1009.60
2018-07-22T03:22:46.825Z,1009.61
2018-07-22T03:23:46.858Z,1009.58
2018-07-22T03:24:47.149Z,1009.62
2018-07-22T03:25:47.173Z,1009.58
2018-07-22T03:26:46.956Z,1009.59
2018-07-22T03:27:46.993Z,1009.55
2018-07-22T03:28:47.141Z,1009.55
2018-07-22T03:29:47.147Z,1009.60
2018-07-22T03:30:47.109Z,1009.61
2018-07-22T03:31:47.369Z,1009.63
2018-07-22T03:32:47.164Z,1009.61
2018-07-22T03:33:47.187Z,1009.62
2018-07-22T03:34:47.235Z,1009.61
2018-07-22T03:35:47.257Z,1009.62
2018-07-22T03:36:47.306Z,1009.63
2018-07-22T03:37:47.570Z,1009.63
2018-07-22T03:38:47.370Z,1009.59
2018-07-22T03:39:47.388Z,1009.61
2018-07-22T03:40:47.418Z,1009.64
2018-07-22T03:41:47.455Z,1009.62
2018-07-22T03:42:47.492Z,1009.72
2018-07-22T03:43:47.524Z,1009.67
2018-07-22T03:44:47.845Z,1009.68
2018-07-22T03:45:47.640Z,1009.71
2018-07-22T03:46:47.641Z,1009.75
2018-07-22T03:47:47.657Z,1009.75
2018-07-22T03:48:47.691Z,1009.75
2018-07-22T03:49:47.725Z,1009.80
2018-07-22T03:50:47.749Z,1009.79
2018-07-22T03:51:48.088Z,1009.77
2018-07-22T03:52:47.814Z,1009.77
2018-07-22T03:53:47.854Z,1009.80
2018-07-22T03:54:47.992Z,1009.81
2018-07-22T03:55:47.924Z,1009.83
2018-07-22T03:56:47.948Z,1009.86
2018-07-22T03:57:47.993Z,1009.83
2018-07-22T03:58:48.269Z,1009.87
2018-07-22T03:59:48.111Z,1009.89
2018-07-22T04:00:48.089Z,1009.94
2018-07-22T04:01:48.135Z,1009.96
2018-07-22T04:02:48.165Z,1009.97
2018-07-22T04:03:48.180Z,1009.98
2018-07-22T04:04:48.228Z,1009.98
2018-07-22T04:05:48.504Z,1009.98
2018-07-22T04:06:48.285Z,1009.98
2018-07-22T04:07:48.320Z,1010.00
2018-07-22T04:08:48.353Z,1010.01
2018-07-22T04:09:48.401Z,1010.02
2018-07-22T04:10:48.514Z,1010.02
2018-07-22T04:11:49.129Z,1009.96
2018-07-22T04:12:48.799Z,1010.01
2018-07-22T04:13:48.516Z,1010.01
2018-07-22T04:14:48.557Z,1009.94
2018-07-22T04:15:48.603Z,1010.01
2018-07-22T04:16:48.621Z,1009.98
2018-07-22T04:17:48.672Z,1009.99
2018-07-22T04:18:48.678Z,1009.98
2018-07-22T04:19:49.066Z,1010.00
2018-07-22T04:20:48.756Z,1010.01
2018-07-22T04:21:48.780Z,1009.97
2018-07-22T04:22:48.813Z,1009.98
2018-07-22T04:23:48.886Z,1010.01
2018-07-22T04:24:49.077Z,1009.98
2018-07-22T04:25:48.913Z,1010.01
2018-07-22T04:26:49.320Z,1010.00
2018-07-22T04:27:48.981Z,1010.00
2018-07-22T04:28:49.125Z,1010.03
2018-07-22T04:29:49.126Z,1010.04
2018-07-22T04:30:49.141Z,1010.04
2018-07-22T04:31:49.217Z,1010.04
2018-07-22T04:32:49.146Z,1010.04
2018-07-22T04:33:49.430Z,1010.05
2018-07-22T04:34:49.225Z,1010.04
2018-07-22T04:35:49.253Z,1010.04
2018-07-22T04:36:49.286Z,1010.07
2018-07-22T04:37:49.320Z,1010.04
2018-07-22T04:38:49.354Z,1010.04
2018-07-22T04:39:49.390Z,1010.08
2018-07-22T04:40:49.689Z,1010.04
2018-07-22T04:41:49.449Z,1010.12
2018-07-22T04:42:49.484Z,1010.11
2018-07-22T04:43:49.519Z,1010.10
2018-07-22T04:44:49.551Z,1010.08
2018-07-22T04:45:49.589Z,1010.11
2018-07-22T04:46:49.673Z,1010.09
2018-07-22T04:47:49.907Z,1010.09
2018-07-22T04:48:49.794Z,1010.08
2018-07-22T04:49:49.731Z,1010.10
2018-07-22T04:50:49.762Z,1010.12
2018-07-22T04:51:49.786Z,1010.11
2018-07-22T04:52:49.821Z,1010.10
2018-07-22T04:53:49.863Z,1010.11
2018-07-22T04:54:50.195Z,1010.11
2018-07-22T04:55:50.151Z,1010.19
2018-07-22T04:56:50.149Z,1010.18
2018-07-22T04:57:49.988Z,1010.20
2018-07-22T04:58:50.021Z,1010.19
2018-07-22T04:59:50.058Z,1010.20
2018-07-22T05:00:50.101Z,1010.23
2018-07-22T05:01:50.451Z,1010.24
2018-07-22T05:02:50.163Z,1010.21
2018-07-22T05:03:50.212Z,1010.27
2018-07-22T05:04:50.231Z,1010.22
2018-07-22T05:05:50.263Z,1010.25
2018-07-22T05:06:50.294Z,1010.26
2018-07-22T05:07:50.628Z,1010.25
2018-07-22T05:08:50.459Z,1010.25
2018-07-22T05:09:50.397Z,1010.25
2018-07-22T05:10:50.452Z,1010.25
2018-07-22T05:11:50.467Z,1010.29
2018-07-22T05:12:50.494Z,1010.32
2018-07-22T05:13:50.831Z,1010.30
2018-07-22T05:14:50.572Z,1010.33
2018-07-22T05:15:50.603Z,1010.36
2018-07-22T05:16:50.645Z,1010.32
2018-07-22T05:17:50.693Z,1010.40
2018-07-22T05:18:50.719Z,1010.36
2018-07-22T05:19:51.018Z,1010.35
2018-07-22T05:20:50.820Z,1010.37
2018-07-22T05:21:50.799Z,1010.33
2018-07-22T05:22:50.834Z,1010.33
2018-07-22T05:23:50.868Z,1010.38
2018-07-22T05:24:50.908Z,1010.38
2018-07-22T05:25:51.241Z,1010.37
2018-07-22T05:26:50.970Z,1010.37
2018-07-22T05:27:51.013Z,1010.38
2018-07-22T05:28:51.035Z,1010.40
2018-07-22T05:29:51.081Z,1010.40
2018-07-22T05:30:51.115Z,1010.42
2018-07-22T05:31:51.504Z,1010.42
2018-07-22T05:32:51.195Z,1010.42
2018-07-22T05:33:51.222Z,1010.40
2018-07-22T05:34:51.248Z,1010.39
2018-07-22T05:35:51.277Z,1010.41
2018-07-22T05:36:51.365Z,1010.38
2018-07-22T05:37:51.657Z,1010.41
2018-07-22T05:38:51.418Z,1010.40
2018-07-22T05:39:51.418Z,1010.38
2018-07-22T05:40:51.467Z,1010.40
2018-07-22T05:41:51.475Z,1010.41
2018-07-22T05:42:51.538Z,1010.42
2018-07-22T05:43:51.865Z,1010.46
2018-07-22T05:44:51.580Z,1010.44
2018-07-22T05:45:51.611Z,1010.43
2018-07-22T05:46:51.692Z,1010.42
2018-07-22T05:47:51.719Z,1010.48
2018-07-22T05:48:51.743Z,1010.45
2018-07-22T05:49:52.053Z,1010.47
2018-07-22T05:50:51.788Z,1010.49
2018-07-22T05:51:51.822Z,1010.51
2018-07-22T05:52:52.153Z,1010.51
2018-07-22T05:53:52.138Z,1010.52
2018-07-22T05:54:51.945Z,1010.47
2018-07-22T05:55:52.203Z,1010.50
2018-07-22T05:56:51.995Z,1010.46
2018-07-22T05:57:52.049Z,1010.49
2018-07-22T05:58:52.065Z,1010.47
2018-07-22T05:59:52.097Z,1010.48
2018-07-22T06:00:52.122Z,1010.52
2018-07-22T06:01:52.412Z,1010.50
2018-07-22T06:02:52.194Z,1010.51
2018-07-22T06:03:52.240Z,1010.61
2018-07-22T06:04:52.258Z,1010.64
2018-07-22T06:05:52.304Z,1010.60
2018-07-22T06:06:52.335Z,1010.61
2018-07-22T06:07:52.654Z,1010.61
2018-07-22T06:08:52.405Z,1010.62
2018-07-22T06:09:52.464Z,1010.64
2018-07-22T06:10:52.464Z,1010.62
2018-07-22T06:11:52.579Z,1010.70
2018-07-22T06:12:52.547Z,1010.69
2018-07-22T06:13:53.077Z,1010.71
2018-07-22T06:14:52.606Z,1010.70
2018-07-22T06:15:52.646Z,1010.72
2018-07-22T06:16:52.671Z,1010.71
2018-07-22T06:17:52.709Z,1010.72
2018-07-22T06:18:52.794Z,1010.76
2018-07-22T06:19:53.129Z,1010.76
2018-07-22T06:20:52.818Z,1010.72
2018-07-22T06:21:52.850Z,1010.75
2018-07-22T06:22:52.975Z,1010.72
2018-07-22T06:23:52.911Z,1010.75
2018-07-22T06:24:53.184Z,1010.71
2018-07-22T06:25:53.385Z,1010.69
2018-07-22T06:26:53.505Z,1010.71
2018-07-22T06:27:53.431Z,1010.65
2018-07-22T06:28:53.425Z,1010.66
2018-07-22T06:29:53.118Z,1010.65
2018-07-22T06:30:53.165Z,1010.62
2018-07-22T06:31:53.244Z,1010.62
2018-07-22T06:32:53.289Z,1010.67
2018-07-22T06:33:53.565Z,1010.68
2018-07-22T06:34:53.568Z,1010.72
2018-07-22T06:35:53.343Z,1010.71
2018-07-22T06:36:53.544Z,1010.71
2018-07-22T06:37:53.411Z,1010.75
2018-07-22T06:38:53.551Z,1010.75
2018-07-22T06:39:53.479Z,1010.77
2018-07-22T06:40:53.827Z,1010.77
2018-07-22T06:41:53.577Z,1010.76
2018-07-22T06:42:53.759Z,1010.78
2018-07-22T06:43:53.596Z,1010.77
2018-07-22T06:44:53.624Z,1010.79
2018-07-22T06:45:53.683Z,1010.84
2018-07-22T06:46:53.708Z,1010.87
2018-07-22T06:47:54.649Z,1010.88
2018-07-22T06:48:53.803Z,1010.92
2018-07-22T06:49:53.834Z,1010.87
2018-07-22T06:50:54.020Z,1010.87
2018-07-22T06:51:54.173Z,1010.89
2018-07-22T06:52:54.024Z,1010.90
2018-07-22T06:53:54.069Z,1010.90
2018-07-22T06:54:54.387Z,1010.90
2018-07-22T06:55:54.030Z,1010.94
2018-07-22T06:56:54.675Z,1010.91
2018-07-22T06:57:54.088Z,1010.91
2018-07-22T06:58:54.178Z,1010.92
2018-07-22T06:59:54.171Z,1010.90
2018-07-22T07:00:54.217Z,1010.86
2018-07-22T07:01:54.455Z,1010.88
2018-07-22T07:02:54.244Z,1010.89
2018-07-22T07:03:54.319Z,1010.86
2018-07-22T07:04:54.315Z,1010.84
2018-07-22T07:05:54.376Z,1010.85
2018-07-22T07:06:54.406Z,1010.86
2018-07-22T07:07:54.445Z,1010.88
2018-07-22T07:08:54.782Z,1010.86
2018-07-22T07:09:54.521Z,1010.85
2018-07-22T07:10:54.549Z,1010.86
2018-07-22T07:11:54.675Z,1010.86
2018-07-22T07:12:54.605Z,1010.87
2018-07-22T07:13:54.654Z,1010.85
2018-07-22T07:14:54.666Z,1010.88
2018-07-22T07:15:55.051Z,1010.83
2018-07-22T07:16:54.739Z,1010.83
2018-07-22T07:17:55.065Z,1010.88
2018-07-22T07:18:54.803Z,1010.87
2018-07-22T07:19:55.098Z,1010.89
2018-07-22T07:20:55.108Z,1010.92
2018-07-22T07:21:54.915Z,1010.93
2018-07-22T07:22:55.235Z,1010.95
2018-07-22T07:23:55.144Z,1010.94
2018-07-22T07:24:55.147Z,1010.98
2018-07-22T07:25:55.047Z,1010.95
2018-07-22T07:26:55.124Z,1010.97
2018-07-22T07:27:55.602Z,1010.97
2018-07-22T07:28:55.137Z,1010.98
2018-07-22T07:29:55.510Z,1010.97
2018-07-22T07:30:55.205Z,1010.97
2018-07-22T07:31:55.439Z,1011.01
